Weather at Chautauqua County-Dunkirk Airport

Public forecast

Using degrees Fahrenheit for public forecast. Weather courtesy of forecast.io.

Current aviation weather report (METAR) for Chautauqua County-Dunkirk Airport

Retrieved 2020/11/24 17:16 UTC (0 seconds ago):

KDKK 241716Z AUTO 04005KT 10SM BKN029 04/M01 A3036 RMK AO2 T00441011

Closest aviation forecast (TAF) to Chautauqua County-Dunkirk Airport

Closest forecast is Chautauqua County-Jamestown Airport, 20.4 nm (37.8 km) S. Retrieved 2020/11/24 12:30 UTC (5 hours ago):

TAF KJHW 241129Z 2412/2512 33006KT P6SM OVC025 FM241500 36005KT P6SM BKN025 FM241900 15005KT P6SM SCT030 BKN150 FM250000 16007KT P6SM VCSH OVC070 FM250700 18010KT P6SM BKN100